Time;durP1;ratioP1;P1;durP2;ratioP2;P2;SDS_P1;SDS_P2;PMS_P1;PMS_P2;Temp;Humidity;BMP_temperature;BMP_pressure;BME280_temperature;BME280_humidity;BME280_pressure;Samples;Min_cycle;Max_cycle;Signal;HPM_P1;HPM_P2
2023/10/02 00:01:57;;;;;;;5.97;2.07;;;;;;;14.59;67.35;100583.94;1792205;79;21023;-71
2023/10/02 00:04:28;;;;;;;10.35;2.50;;;;;;;14.56;67.46;100582.15;1828746;78;21054;-71
2023/10/02 00:07:06;;;;;;;6.20;2.17;;;;;;;14.55;67.61;100577.17;1828474;78;21006;-72
2023/10/02 00:09:35;;;;;;;7.85;2.10;;;;;;;14.54;67.73;100582.90;1797593;78;21050;-72
2023/10/02 00:12:11;;;;;;;13.30;2.80;;;;;;;14.53;67.82;100577.07;1828643;78;21030;-71
2023/10/02 00:14:41;;;;;;;10.43;2.58;;;;;;;14.49;67.95;100579.42;1791865;80;21023;-71
2023/10/02 00:17:14;;;;;;;7.40;2.37;;;;;;;14.46;68.13;100581.23;1792051;80;21055;-71
2023/10/02 00:19:49;;;;;;;8.50;2.58;;;;;;;14.43;68.27;100589.95;1791767;80;21431;-72
2023/10/02 00:22:42;;;;;;;7.50;2.30;;;;;;;14.42;68.37;100586.00;1828670;78;21018;-72
2023/10/02 00:25:17;;;;;;;6.55;2.40;;;;;;;14.38;68.46;100588.34;1791748;80;21043;-72
2023/10/02 00:27:54;;;;;;;6.00;2.27;;;;;;;14.31;68.71;100590.28;1791916;79;21007;-71
2023/10/02 00:30:36;;;;;;;7.08;2.20;;;;;;;14.27;68.89;100587.08;1792042;80;21097;-71
2023/10/02 00:33:03;;;;;;;8.90;2.42;;;;;;;14.23;69.10;100587.20;1791963;80;21015;-71
2023/10/02 00:35:49;;;;;;;8.45;2.70;;;;;;;14.19;69.35;100584.56;1771651;80;21083;-71
2023/10/02 00:38:03;;;;;;;8.10;2.67;;;;;;;14.17;69.59;100592.73;1795448;79;21066;-71
2023/10/02 00:40:32;;;;;;;7.45;2.40;;;;;;;14.14;69.74;100589.87;1797669;80;21051;-73
2023/10/02 00:45:49;;;;;;;10.08;2.75;;;;;;;14.14;69.91;100584.37;1797686;80;21450;-72
2023/10/02 00:48:25;;;;;;;8.38;2.40;;;;;;;14.10;70.05;100588.63;1797695;80;21110;-71
2023/10/02 00:50:59;;;;;;;7.78;2.60;;;;;;;14.07;70.17;100589.05;1755759;80;21070;-72
2023/10/02 00:53:46;;;;;;;9.38;2.50;;;;;;;14.03;70.28;100585.03;1797797;80;21015;-71
2023/10/02 00:56:28;;;;;;;9.18;2.50;;;;;;;14.00;70.47;100592.35;1797355;79;21022;-72
2023/10/02 00:59:01;;;;;;;8.48;2.05;;;;;;;13.97;70.68;100592.78;1700230;84;21030;-72
2023/10/02 01:01:32;;;;;;;9.85;2.67;;;;;;;13.95;70.83;100588.02;1678412;84;21085;-72
2023/10/02 01:04:09;;;;;;;11.88;2.80;;;;;;;13.92;70.91;100584.33;1700277;84;21192;-71
2023/10/02 01:06:55;;;;;;;7.35;2.30;;;;;;;13.88;71.05;100592.17;1700207;84;21537;-71
2023/10/02 01:09:26;;;;;;;7.22;2.60;;;;;;;13.86;71.19;100599.80;1700318;84;21030;-73
2023/10/02 01:12:01;;;;;;;5.40;2.20;;;;;;;13.85;71.31;100604.14;1700240;84;21102;-72
2023/10/02 01:14:50;;;;;;;11.78;2.50;;;;;;;13.81;71.46;100607.02;1700324;83;21138;-72
2023/10/02 01:17:21;;;;;;;11.00;2.45;;;;;;;13.76;71.66;100606.80;1758212;80;21074;-72
2023/10/02 01:19:53;;;;;;;7.53;2.35;;;;;;;13.73;71.93;100609.98;1797705;80;21439;-73
2023/10/02 01:22:28;;;;;;;7.58;2.42;;;;;;;13.72;72.05;100609.14;1798065;80;21125;-75
2023/10/02 01:25:16;;;;;;;6.75;2.45;;;;;;;13.73;72.07;100616.87;1797882;80;21003;-72
2023/10/02 01:27:50;;;;;;;6.10;2.20;;;;;;;13.71;72.17;100607.98;1797664;80;21023;-73
2023/10/02 01:30:24;;;;;;;7.35;2.20;;;;;;;13.72;72.18;100609.67;1797711;80;21026;-73
2023/10/02 01:33:17;;;;;;;8.60;2.35;;;;;;;13.71;72.23;100611.58;1797708;79;21070;-73
2023/10/02 01:35:49;;;;;;;5.85;1.90;;;;;;;13.72;72.21;100611.05;1796598;79;21109;-73
2023/10/02 01:38:33;;;;;;;7.53;2.42;;;;;;;13.75;72.18;100612.00;1765397;80;21140;-73
2023/10/02 01:41:06;;;;;;;12.73;3.02;;;;;;;13.72;72.25;100616.55;1792584;79;21453;-72
2023/10/02 01:43:46;;;;;;;7.22;2.25;;;;;;;13.67;72.35;100616.34;1792818;80;21045;-74
2023/10/02 01:46:18;;;;;;;8.70;2.52;;;;;;;13.64;72.49;100617.59;1792854;80;21449;-72
2023/10/02 01:48:48;;;;;;;10.08;2.50;;;;;;;13.62;72.58;100610.06;1792649;80;21038;-72
2023/10/02 01:51:25;;;;;;;10.68;2.02;;;;;;;13.58;72.72;100617.91;1792697;80;21097;-72
2023/10/02 01:54:15;;;;;;;12.37;2.55;;;;;;;13.60;72.78;100624.05;1792740;79;21105;-72
2023/10/02 01:56:35;;;;;;;9.18;2.35;;;;;;;13.62;72.79;100623.30;1791091;79;21449;-71
2023/10/02 01:59:10;;;;;;;9.60;2.70;;;;;;;13.61;72.82;100625.74;1792671;80;20994;-71
2023/10/02 02:01:57;;;;;;;7.20;2.30;;;;;;;13.62;72.83;100621.92;1792681;80;21061;-76
2023/10/02 02:04:33;;;;;;;6.58;2.52;;;;;;;13.64;72.79;100618.44;1792809;80;21045;-73
2023/10/02 02:07:07;;;;;;;7.83;2.33;;;;;;;13.63;72.80;100629.13;1792656;80;21511;-72
2023/10/02 02:09:42;;;;;;;8.18;2.37;;;;;;;13.58;72.83;100623.41;1792638;80;21477;-72
2023/10/02 02:12:14;;;;;;;8.90;2.50;;;;;;;13.56;72.90;100627.44;1763954;80;21018;-71
2023/10/02 02:14:51;;;;;;;8.15;2.40;;;;;;;13.49;73.03;100634.31;1792951;80;21073;-72
2023/10/02 02:17:25;;;;;;;7.45;2.62;;;;;;;13.46;73.21;100636.12;1792760;80;21037;-72
2023/10/02 02:19:59;;;;;;;8.70;2.42;;;;;;;13.46;73.33;100634.73;1792807;80;21057;-72
2023/10/02 02:22:31;;;;;;;11.95;3.08;;;;;;;13.47;73.39;100635.59;1792565;80;21033;-70
2023/10/02 02:24:58;;;;;;;6.90;2.22;;;;;;;13.46;73.41;100638.02;1792416;80;21489;-72
2023/10/02 02:27:27;;;;;;;11.97;3.02;;;;;;;13.42;73.46;100638.13;1792679;80;21080;-71
2023/10/02 02:29:57;;;;;;;8.10;2.35;;;;;;;13.36;73.54;100632.94;1792727;80;21505;-72
2023/10/02 02:32:52;;;;;;;8.08;2.52;;;;;;;13.32;73.66;100638.55;1792705;80;21065;-72
2023/10/02 02:35:17;;;;;;;8.70;2.90;;;;;;;13.25;73.80;100639.06;1791793;80;21531;-71
2023/10/02 02:37:46;;;;;;;8.00;2.17;;;;;;;13.21;74.07;100646.04;1787316;80;21049;-72
2023/10/02 02:40:25;;;;;;;6.85;2.40;;;;;;;13.19;74.21;100642.65;1786833;80;21065;-70
2023/10/02 02:42:56;;;;;;;8.68;2.52;;;;;;;13.18;74.33;100647.30;1786532;80;21037;-72
2023/10/02 02:45:28;;;;;;;7.87;2.10;;;;;;;13.17;74.46;100648.89;1786872;80;21034;-72
2023/10/02 02:48:04;;;;;;;9.05;2.35;;;;;;;13.15;74.51;100646.31;1757791;80;21038;-72
2023/10/02 02:50:40;;;;;;;7.33;2.30;;;;;;;13.12;74.66;100641.75;1786789;80;21089;-71
2023/10/02 02:53:17;;;;;;;8.48;2.42;;;;;;;13.10;74.79;100645.24;1786789;80;21049;-72
2023/10/02 02:56:18;;;;;;;9.25;2.83;;;;;;;13.07;74.95;100644.28;1786883;80;21057;-71
2023/10/02 02:58:48;;;;;;;9.35;2.65;;;;;;;13.06;75.05;100639.84;1764335;80;21107;-72
2023/10/02 03:01:26;;;;;;;7.58;2.40;;;;;;;13.06;75.07;100642.06;1786824;80;21045;-71
2023/10/02 03:03:56;;;;;;;10.03;2.30;;;;;;;13.05;75.03;100635.39;1786763;80;21565;-71
2023/10/02 03:06:27;;;;;;;8.80;2.50;;;;;;;13.03;75.03;100637.50;1787098;80;21476;-73
2023/10/02 03:08:58;;;;;;;7.30;2.37;;;;;;;13.02;75.13;100643.53;1787184;80;21050;-74
2023/10/02 03:11:29;;;;;;;8.78;2.20;;;;;;;12.99;75.17;100641.16;1786959;79;21022;-72
2023/10/02 03:14:16;;;;;;;7.78;2.05;;;;;;;12.94;75.27;100633.53;1786733;80;21527;-72
2023/10/02 03:16:45;;;;;;;7.50;2.50;;;;;;;12.90;75.40;100636.91;1786807;79;20990;-73
2023/10/02 03:19:16;;;;;;;8.13;2.52;;;;;;;12.88;75.60;100634.89;1787023;80;21458;-72
2023/10/02 03:21:47;;;;;;;10.55;2.40;;;;;;;12.86;75.70;100639.75;1786951;80;21115;-72
2023/10/02 03:24:19;;;;;;;8.93;2.77;;;;;;;12.84;75.81;100639.96;1787200;80;21022;-71
2023/10/02 03:26:52;;;;;;;6.97;2.50;;;;;;;12.85;75.86;100645.78;1786938;80;21034;-71
2023/10/02 03:29:21;;;;;;;9.95;2.70;;;;;;;12.86;75.91;100646.10;1786182;80;21095;-72
2023/10/02 03:31:50;;;;;;;9.00;2.65;;;;;;;12.87;75.95;100643.67;1786598;80;21034;-72
2023/10/02 03:34:27;;;;;;;9.63;2.80;;;;;;;12.87;75.90;100646.95;1787175;79;21112;-72
2023/10/02 03:39:52;;;;;;;6.37;2.60;;;;;;;12.78;76.12;100649.03;1786757;80;21469;-72
2023/10/02 03:42:22;;;;;;;7.55;2.60;;;;;;;12.75;76.34;100648.07;1786877;79;21057;-72
2023/10/02 03:44:58;;;;;;;10.68;3.00;;;;;;;12.76;76.40;100648.39;1786822;80;21081;-72
2023/10/02 03:47:33;;;;;;;8.03;2.40;;;;;;;12.75;76.43;100649.97;1786817;80;21026;-72
2023/10/02 03:50:04;;;;;;;8.48;2.40;;;;;;;12.72;76.53;100651.23;1786910;80;21159;-72
2023/10/02 03:52:34;;;;;;;8.08;2.98;;;;;;;12.73;76.60;100657.05;1787048;80;21089;-74
2023/10/02 03:55:18;;;;;;;9.93;2.65;;;;;;;12.77;76.57;100653.36;1787007;80;21085;-73
2023/10/02 03:57:49;;;;;;;12.33;3.15;;;;;;;12.80;76.49;100650.20;1786953;80;21489;-72
2023/10/02 04:00:19;;;;;;;9.15;2.72;;;;;;;12.77;76.44;100654.22;1786795;80;21061;-72
2023/10/02 04:02:57;;;;;;;9.78;2.92;;;;;;;12.77;76.50;100643.74;1786924;80;21442;-70
2023/10/02 04:05:31;;;;;;;9.03;2.72;;;;;;;12.74;76.56;100643.63;1756504;80;21064;-73
2023/10/02 04:10:55;;;;;;;9.43;2.90;;;;;;;12.68;76.74;100644.45;1786936;80;21030;-72
2023/10/02 04:13:32;;;;;;;8.78;3.08;;;;;;;12.63;76.85;100654.69;1787178;80;21513;-72
2023/10/02 04:18:49;;;;;;;8.30;2.50;;;;;;;12.63;77.02;100652.47;1787165;80;21525;-72
2023/10/02 04:21:25;;;;;;;12.80;3.15;;;;;;;12.65;77.08;100657.23;1757593;80;21085;-74
2023/10/02 04:23:54;;;;;;;8.75;3.10;;;;;;;12.65;77.10;100653.11;1786850;80;21022;-71
2023/10/02 04:26:23;;;;;;;6.55;2.60;;;;;;;12.65;77.08;100664.95;1786741;80;21033;-73
2023/10/02 04:29:14;;;;;;;7.28;2.55;;;;;;;12.64;77.14;100663.78;1786948;80;21092;-71
2023/10/02 04:31:44;;;;;;;9.25;2.80;;;;;;;12.63;77.23;100664.31;1786794;79;21050;-69
2023/10/02 04:36:45;;;;;;;8.68;2.90;;;;;;;12.70;77.29;100675.34;1784204;80;21105;-73
2023/10/02 04:42:14;;;;;;;9.85;3.10;;;;;;;12.76;77.18;100687.41;1787408;80;21066;-72
2023/10/02 04:44:44;;;;;;;9.60;3.10;;;;;;;12.78;77.11;100689.44;1787370;80;21070;-73
2023/10/02 04:47:18;;;;;;;8.43;3.30;;;;;;;12.76;77.04;100697.89;1759689;80;21062;-72
2023/10/02 04:55:41;;;;;;;8.40;2.75;;;;;;;12.69;77.21;100697.01;1692519;85;21034;-73
2023/10/02 04:58:09;;;;;;;;;;;;;;;12.70;77.30;100700.92;1665181;86;21051;-71
2023/10/02 05:00:38;;;;;;;10.40;3.22;;;;;;;12.73;77.35;100701.05;1692627;85;20164;-73
2023/10/02 05:03:09;;;;;;;8.30;2.70;;;;;;;12.76;77.36;100702.02;1663225;86;21114;-73
2023/10/02 05:05:42;;;;;;;10.60;2.95;;;;;;;12.80;77.30;100699.17;1727654;83;21066;-72
2023/10/02 05:08:18;;;;;;;11.00;3.20;;;;;;;12.80;77.25;100702.45;1727489;83;21054;-72
2023/10/02 05:10:42;;;;;;;10.45;2.95;;;;;;;12.82;77.35;100708.59;1773410;78;20995;-72
2023/10/02 05:13:11;;;;;;;12.53;3.55;;;;;;;12.85;77.20;100714.53;1826240;78;21003;-74
2023/10/02 05:16:06;;;;;;;8.93;2.87;;;;;;;12.87;77.11;100711.05;1825923;78;21045;-73
2023/10/02 05:18:16;;;;;;;8.90;2.83;;;;;;;12.92;77.06;100718.16;1821562;78;21042;-72
2023/10/02 05:20:47;;;;;;;7.40;3.10;;;;;;;12.98;77.00;100719.23;1826063;78;21446;-73
2023/10/02 05:23:16;;;;;;;12.80;3.15;;;;;;;13.03;76.91;100722.78;1826486;78;21133;-72
2023/10/02 05:25:47;;;;;;;14.15;3.15;;;;;;;13.08;76.78;100725.77;1825987;78;21418;-72
2023/10/02 05:28:16;;;;;;;8.43;2.98;;;;;;;13.09;76.55;100729.68;1797950;78;21062;-73
2023/10/02 05:30:46;;;;;;;11.80;2.80;;;;;;;13.11;76.56;100730.84;1797237;78;20983;-73
2023/10/02 05:33:36;;;;;;;10.10;3.35;;;;;;;13.15;76.48;100728.01;1826217;78;21007;-72
2023/10/02 05:35:45;;;;;;;7.90;2.65;;;;;;;13.18;76.32;100727.63;1821357;78;21026;-73
2023/10/02 05:38:16;;;;;;;11.53;3.90;;;;;;;13.20;76.20;100726.89;1808745;78;21077;-73
2023/10/02 05:40:47;;;;;;;7.00;3.42;;;;;;;13.22;76.10;100727.00;1770856;80;21516;-72
2023/10/02 05:43:21;;;;;;;9.73;3.35;;;;;;;13.24;76.03;100726.80;1800929;80;21029;-73
2023/10/02 05:45:47;;;;;;;12.58;2.75;;;;;;;13.25;75.94;100730.72;1801021;79;21073;-75
2023/10/02 05:48:27;;;;;;;10.38;3.30;;;;;;;13.28;75.89;100741.31;1801134;80;21422;-74
2023/10/02 05:50:59;;;;;;;12.55;3.10;;;;;;;13.32;75.82;100748.63;1800849;80;21049;-73
2023/10/02 05:53:34;;;;;;;11.20;3.12;;;;;;;13.37;75.72;100741.97;1801089;80;21568;-73
2023/10/02 05:56:05;;;;;;;7.87;2.60;;;;;;;13.42;75.56;100740.82;1800842;80;21515;-74
2023/10/02 05:58:36;;;;;;;11.57;3.35;;;;;;;13.47;75.44;100747.92;1800780;80;21033;-72
2023/10/02 06:01:18;;;;;;;12.18;3.30;;;;;;;13.49;75.28;100748.56;1800946;80;21017;-74
2023/10/02 06:03:38;;;;;;;12.28;3.27;;;;;;;13.48;75.10;100748.25;1799824;80;21026;-73
2023/10/02 06:06:21;;;;;;;9.78;3.30;;;;;;;13.51;75.06;100746.98;1800991;78;21485;-74
2023/10/02 06:08:52;;;;;;;10.88;3.65;;;;;;;13.57;75.00;100754.41;1801173;80;21033;-74
2023/10/02 06:11:26;;;;;;;10.25;3.72;;;;;;;13.59;74.80;100761.92;1801146;80;21065;-74
2023/10/02 06:14:09;;;;;;;10.82;3.30;;;;;;;13.60;74.72;100754.83;1801208;79;20994;-74
2023/10/02 06:16:30;;;;;;;9.63;3.22;;;;;;;13.60;74.63;100762.25;1799711;78;21069;-73
2023/10/02 06:19:02;;;;;;;10.75;2.98;;;;;;;13.61;74.61;100761.19;1801105;80;21064;-72
2023/10/02 06:21:45;;;;;;;11.90;3.40;;;;;;;13.60;74.51;100765.84;1801105;79;21026;-75
2023/10/02 06:24:05;;;;;;;16.67;3.45;;;;;;;13.61;74.57;100762.56;1799369;78;21053;-73
2023/10/02 06:26:49;;;;;;;10.35;3.10;;;;;;;13.67;74.56;100762.29;1801240;80;21045;-72
2023/10/02 06:29:16;;;;;;;4.85;2.70;;;;;;;13.69;74.52;100755.52;1798573;80;21477;-73
2023/10/02 06:31:50;;;;;;;10.23;3.50;;;;;;;13.74;74.47;100756.27;1801204;80;21045;-74
2023/10/02 06:34:15;;;;;;;12.58;3.30;;;;;;;13.78;74.36;100751.50;1800491;78;21161;-74
2023/10/02 06:37:02;;;;;;;7.08;2.77;;;;;;;13.83;74.29;100758.61;1770553;80;21068;-72
2023/10/02 06:39:22;;;;;;;10.82;3.15;;;;;;;13.89;74.22;100759.67;1832689;78;21034;-76
2023/10/02 06:41:52;;;;;;;8.48;3.10;;;;;;;13.91;74.00;100761.69;1834562;78;21006;-72
2023/10/02 06:44:21;;;;;;;12.33;3.22;;;;;;;13.92;73.86;100762.00;1834360;78;21442;-73
2023/10/02 06:46:54;;;;;;;9.40;3.58;;;;;;;13.92;73.77;100769.73;1834409;78;21092;-73
2023/10/02 06:49:26;;;;;;;9.95;2.90;;;;;;;13.96;73.80;100761.90;1797843;80;21066;-73
2023/10/02 06:52:10;;;;;;;16.12;3.50;;;;;;;14.01;73.65;100752.47;1797895;80;20975;-73
2023/10/02 06:54:27;;;;;;;9.83;3.20;;;;;;;14.05;73.59;100766.14;1795581;79;21516;-74
2023/10/02 06:56:58;;;;;;;7.87;2.90;;;;;;;14.09;73.52;100760.52;1797608;79;21058;-73
2023/10/02 06:59:28;;;;;;;9.23;3.10;;;;;;;14.13;73.35;100762.33;1797825;80;20979;-74
2023/10/02 07:02:04;;;;;;;9.00;3.35;;;;;;;14.16;73.27;100772.40;1797718;80;21579;-72
2023/10/02 07:04:35;;;;;;;8.45;2.90;;;;;;;14.20;73.19;100771.44;1798238;80;21508;-73
2023/10/02 07:07:07;;;;;;;10.08;3.10;;;;;;;14.24;73.04;100772.71;1797970;80;21058;-74
2023/10/02 07:09:36;;;;;;;8.93;2.98;;;;;;;14.24;72.94;100772.18;1797971;79;21081;-74
2023/10/02 07:12:08;;;;;;;7.58;2.98;;;;;;;14.28;72.98;100773.45;1797818;80;21007;-74
2023/10/02 07:14:38;;;;;;;12.65;3.27;;;;;;;14.39;72.90;100776.66;1797831;80;21443;-73
2023/10/02 07:17:17;;;;;;;5.90;2.67;;;;;;;14.46;72.72;100779.75;1797764;80;21058;-72
2023/10/02 07:19:43;;;;;;;10.13;2.87;;;;;;;14.53;72.55;100782.50;1796089;79;21044;-72
2023/10/02 07:22:16;;;;;;;8.78;2.77;;;;;;;14.57;72.28;100781.86;1797676;80;21130;-73
2023/10/02 07:24:41;;;;;;;8.68;2.80;;;;;;;14.65;72.09;100783.55;1797422;79;20987;-73
2023/10/02 07:27:22;;;;;;;9.28;3.98;;;;;;;14.72;71.88;100780.23;1797598;80;20975;-74
2023/10/02 07:29:42;;;;;;;10.50;3.77;;;;;;;14.76;71.66;100783.41;1796232;79;21015;-73
2023/10/02 07:32:13;;;;;;;9.20;2.80;;;;;;;14.82;71.58;100783.39;1797871;80;21054;-74
2023/10/02 07:34:45;;;;;;;12.18;3.08;;;;;;;14.88;71.24;100789.96;1778376;80;21078;-73
2023/10/02 07:37:16;;;;;;;11.95;3.58;;;;;;;14.94;71.18;100784.95;1797658;78;21050;-74
2023/10/02 07:39:46;;;;;;;7.62;2.67;;;;;;;15.02;71.03;100780.61;1792765;80;21022;-75
2023/10/02 07:42:16;;;;;;;9.93;2.98;;;;;;;15.09;70.55;100784.19;1792616;80;21069;-73
2023/10/02 07:44:45;;;;;;;6.95;2.60;;;;;;;15.13;70.53;100785.98;1792799;80;21077;-75
2023/10/02 07:47:17;;;;;;;10.13;2.87;;;;;;;15.25;70.31;100790.29;1792624;80;21045;-72
2023/10/02 07:49:51;;;;;;;8.63;2.80;;;;;;;15.47;69.98;100796.66;1765222;80;21405;-75
2023/10/02 07:52:38;;;;;;;6.45;3.00;;;;;;;15.79;69.28;100799.52;1765115;80;21017;-74
2023/10/02 07:55:10;;;;;;;8.33;2.90;;;;;;;16.17;68.30;100803.60;1792606;80;21065;-73
2023/10/02 07:57:38;;;;;;;10.88;2.70;;;;;;;16.57;66.51;100794.98;1765207;80;21057;-72
2023/10/02 08:00:33;;;;;;;8.18;3.10;;;;;;;16.96;65.47;100799.33;1792375;80;21089;-74
2023/10/02 08:02:41;;;;;;;6.78;2.70;;;;;;;17.28;64.01;100795.86;1791061;78;21455;-76
2023/10/02 08:05:13;;;;;;;6.87;3.27;;;;;;;17.55;63.07;100801.90;1727089;83;21098;-64
2023/10/02 08:07:45;;;;;;;6.55;3.02;;;;;;;17.79;62.46;100802.37;1763925;81;21110;-71
2023/10/02 08:10:17;;;;;;;9.30;3.10;;;;;;;18.06;62.70;100807.81;1763012;80;21106;-70
2023/10/02 08:12:57;;;;;;;12.95;3.45;;;;;;;18.20;60.96;100814.55;1773302;80;21113;-70
2023/10/02 08:15:32;;;;;;;8.35;3.15;;;;;;;18.34;61.08;100809.95;1739489;81;21209;-71
2023/10/02 08:20:38;;;;;;;8.80;3.10;;;;;;;18.73;58.33;100803.98;1727456;83;21054;-72
2023/10/02 08:23:02;;;;;;;7.83;2.87;;;;;;;18.81;58.77;100807.78;1761776;78;21031;-71
2023/10/02 08:25:34;;;;;;;6.35;3.08;;;;;;;18.93;58.13;100807.27;1755457;82;21055;-73
2023/10/02 08:28:07;;;;;;;6.78;2.67;;;;;;;18.95;56.97;100803.16;1806465;79;21066;-72
2023/10/02 08:30:38;;;;;;;7.65;2.80;;;;;;;18.91;57.54;100806.12;1811362;79;21450;-72
2023/10/02 08:33:09;;;;;;;8.10;2.75;;;;;;;18.88;56.43;100805.21;1811601;79;20999;-73
2023/10/02 08:35:46;;;;;;;8.40;3.10;;;;;;;18.80;56.24;100807.48;1808127;79;21629;-72
2023/10/02 08:38:23;;;;;;;7.08;2.87;;;;;;;18.80;55.82;100802.77;1811163;78;21106;-72
2023/10/02 08:40:57;;;;;;;8.48;2.83;;;;;;;18.77;55.74;100810.20;1810996;79;21042;-72
2023/10/02 08:43:32;;;;;;;7.50;2.83;;;;;;;18.72;55.66;100810.62;1780317;79;21067;-75
2023/10/02 08:46:04;;;;;;;6.00;2.70;;;;;;;18.63;55.37;100811.52;1812435;79;21520;-75
2023/10/02 08:48:35;;;;;;;8.50;3.45;;;;;;;18.40;55.54;100809.55;1812294;79;21019;-72
2023/10/02 08:51:10;;;;;;;7.15;2.90;;;;;;;18.22;56.41;100813.80;1812413;79;21345;-71
2023/10/02 08:53:43;;;;;;;6.58;2.90;;;;;;;18.13;56.78;100817.96;1756422;82;21533;-73
2023/10/02 08:56:22;;;;;;;10.72;5.12;;;;;;;18.09;56.87;100819.52;1812132;79;21031;-75
2023/10/02 09:01:46;;;;;;;7.25;2.75;;;;;;;18.02;56.59;100819.08;1756521;82;21114;-75
2023/10/02 09:04:22;;;;;;;6.20;2.52;;;;;;;18.05;56.33;100835.24;1809815;79;20982;-76
2023/10/02 09:06:58;;;;;;;6.33;2.77;;;;;;;18.07;56.04;100819.75;1853539;77;21069;-75
2023/10/02 09:14:53;;;;;;;8.78;2.77;;;;;;;17.95;56.26;100832.20;1828380;77;21054;-73
2023/10/02 09:17:33;;;;;;;9.50;3.50;;;;;;;17.94;56.08;100830.50;1854479;76;21039;-73
2023/10/02 09:20:03;;;;;;;5.97;2.65;;;;;;;17.91;55.88;100839.30;1815677;79;21412;-74
2023/10/02 09:22:41;;;;;;;8.20;3.25;;;;;;;17.89;55.64;100842.00;1820219;79;21058;-70
2023/10/02 09:25:15;;;;;;;7.30;2.83;;;;;;;17.84;55.12;100836.31;1816654;79;21450;-76
2023/10/02 09:28:03;;;;;;;8.95;3.37;;;;;;;17.79;55.21;100832.86;1820018;79;21094;-75
2023/10/02 09:33:22;;;;;;;6.77;2.83;;;;;;;17.80;55.08;100831.78;1820455;79;21536;-75
2023/10/02 09:35:50;;;;;;;7.15;2.65;;;;;;;17.78;54.98;100831.17;1814393;79;21223;-77
2023/10/02 09:38:31;;;;;;;8.08;3.15;;;;;;;17.66;55.09;100826.95;1815908;78;21106;-77
2023/10/02 09:41:00;;;;;;;8.40;3.20;;;;;;;17.64;55.59;100829.09;1814647;79;21051;-73
2023/10/02 09:43:35;;;;;;;7.08;2.60;;;;;;;17.69;55.45;100828.42;1820566;79;21458;-75
2023/10/02 09:46:07;;;;;;;8.35;2.90;;;;;;;17.74;55.38;100823.02;1816584;79;21439;-74
2023/10/02 09:48:57;;;;;;;8.80;3.02;;;;;;;17.79;55.21;100827.85;1820012;79;21074;-76
2023/10/02 09:51:45;;;;;;;12.15;3.60;;;;;;;17.76;54.88;100830.55;1816712;79;21011;-76
2023/10/02 09:54:28;;;;;;;10.68;3.37;;;;;;;17.71;55.04;100832.64;1820275;79;21015;-76
2023/10/02 09:57:06;;;;;;;6.05;2.80;;;;;;;17.71;55.61;100826.26;1816199;78;21054;-73
2023/10/02 09:59:46;;;;;;;7.83;3.52;;;;;;;17.72;56.12;100834.88;1820491;79;20983;-77
2023/10/02 10:07:52;;;;;;;8.18;3.15;;;;;;;17.60;56.95;100836.72;1816545;79;21267;-77
2023/10/02 10:10:45;;;;;;;8.55;3.25;;;;;;;17.60;57.04;100836.72;1820140;79;21023;-74
2023/10/02 10:13:12;;;;;;;8.15;3.50;;;;;;;17.62;56.11;100829.02;1813584;79;21058;-75
2023/10/02 10:15:34;;;;;;;8.98;3.40;;;;;;;17.66;55.01;100829.73;1818429;79;21122;-74
2023/10/02 10:18:12;;;;;;;6.78;3.20;;;;;;;17.72;54.59;100827.95;1807363;79;21048;-77
2023/10/02 10:20:38;;;;;;;8.88;3.20;;;;;;;17.76;54.13;100829.17;1821356;79;21011;-75
2023/10/02 10:23:31;;;;;;;9.00;3.42;;;;;;;17.79;54.06;100830.09;1818748;79;21103;-77
2023/10/02 10:25:54;;;;;;;8.13;3.10;;;;;;;17.81;54.24;100829.85;1816567;79;21013;-75
2023/10/02 10:28:26;;;;;;;10.05;3.60;;;;;;;17.79;54.39;100831.47;1818624;79;21494;-75
2023/10/02 10:31:01;;;;;;;8.18;3.37;;;;;;;17.79;54.49;100836.17;1818821;79;21020;-74
2023/10/02 10:33:34;;;;;;;9.55;3.62;;;;;;;17.76;54.59;100827.78;1818793;79;21448;-75
2023/10/02 10:36:12;;;;;;;6.37;3.40;;;;;;;17.73;54.61;100832.41;1819042;79;21068;-76
2023/10/02 10:38:41;;;;;;;11.20;3.55;;;;;;;17.69;54.74;100830.65;1788189;78;22098;-77
2023/10/02 10:41:30;;;;;;;10.13;3.77;;;;;;;17.65;54.68;100826.63;1800175;80;21461;-77
2023/10/02 10:44:06;;;;;;;7.42;3.20;;;;;;;17.62;54.62;100828.47;1799966;80;21054;-74
2023/10/02 10:46:32;;;;;;;8.28;3.00;;;;;;;17.60;54.55;100821.48;1832716;78;21042;-74
2023/10/02 10:49:27;;;;;;;8.00;3.30;;;;;;;17.62;54.17;100824.86;1800087;80;21038;-76
2023/10/02 10:51:55;;;;;;;9.20;3.30;;;;;;;17.65;53.77;100821.08;1800073;80;21093;-75
2023/10/02 10:54:30;;;;;;;6.87;2.90;;;;;;;17.70;53.74;100825.95;1796475;80;21038;-73
2023/10/02 10:57:25;;;;;;;6.58;3.02;;;;;;;17.76;53.44;100821.39;1735961;80;21080;-75
2023/10/02 10:59:33;;;;;;;8.80;3.35;;;;;;;17.78;53.52;100825.62;1777720;80;21078;-75
2023/10/02 11:02:18;;;;;;;11.20;3.85;;;;;;;17.85;53.57;100825.53;1788663;80;21513;-75
2023/10/02 11:04:48;;;;;;;9.58;3.08;;;;;;;17.87;53.71;100827.53;1788680;80;21042;-77
2023/10/02 11:07:19;;;;;;;8.53;3.72;;;;;;;17.89;53.93;100823.44;1788625;80;21493;-75
2023/10/02 11:10:19;;;;;;;7.70;3.27;;;;;;;17.85;53.94;100829.15;1788544;80;21074;-76
2023/10/02 11:12:57;;;;;;;;;;;;;;;17.80;53.87;100824.84;1795851;78;21074;-74
2023/10/02 11:18:29;;;;;;;9.35;4.95;;;;;;;17.74;53.51;100823.86;1768370;81;21042;-74
2023/10/02 11:20:59;;;;;;;9.80;3.70;;;;;;;17.78;53.04;100810.37;1742226;81;21022;-74
2023/10/02 11:23:38;;;;;;;8.15;3.37;;;;;;;17.80;53.05;100815.14;1729878;83;21090;-74
2023/10/02 11:26:12;;;;;;;12.20;3.95;;;;;;;17.82;52.69;100814.37;1729341;83;21070;-77
2023/10/02 11:28:44;;;;;;;8.88;3.65;;;;;;;17.86;52.35;100819.75;1729159;83;21331;-76
2023/10/02 11:31:29;;;;;;;10.70;4.35;;;;;;;17.92;52.00;100821.58;1729608;83;21046;-76
2023/10/02 11:34:07;;;;;;;12.10;4.28;;;;;;;17.96;51.35;100817.25;1729263;83;21089;-74
2023/10/02 11:36:46;;;;;;;8.63;4.17;;;;;;;17.98;51.20;100813.70;1725802;83;21057;-75
2023/10/02 11:39:19;;;;;;;9.55;4.30;;;;;;;17.99;50.64;100814.00;1729734;83;21103;-75
2023/10/02 11:41:48;;;;;;;12.63;4.78;;;;;;;17.97;50.39;100814.78;1729776;83;21057;-77
2023/10/02 11:44:18;;;;;;;9.18;4.10;;;;;;;17.92;50.53;100816.03;1729624;83;21073;-75
2023/10/02 11:46:48;;;;;;;11.50;3.80;;;;;;;17.89;50.56;100812.34;1750044;81;21081;-76
2023/10/02 11:49:18;;;;;;;12.68;4.37;;;;;;;17.88;50.82;100815.36;1759570;81;20982;-73
2023/10/02 11:51:47;;;;;;;10.20;3.92;;;;;;;17.88;51.02;100821.75;1760006;81;21014;-77
2023/10/02 11:54:17;;;;;;;9.58;3.80;;;;;;;17.90;51.17;100819.58;1759724;81;21037;-76
2023/10/02 11:56:47;;;;;;;11.18;4.22;;;;;;;17.93;51.19;100814.95;1759855;81;21366;-75
2023/10/02 11:59:16;;;;;;;10.40;4.47;;;;;;;17.96;51.28;100824.72;1759736;81;21034;-77
2023/10/02 12:01:48;;;;;;;11.45;4.22;;;;;;;18.02;51.08;100823.23;1759551;81;21454;-75
2023/10/02 12:04:17;;;;;;;8.55;4.05;;;;;;;18.07;50.58;100816.98;1759724;81;21403;-74
2023/10/02 12:06:46;;;;;;;10.98;4.30;;;;;;;18.10;50.23;100822.05;1759746;81;21103;-75
2023/10/02 12:09:17;;;;;;;10.32;4.12;;;;;;;18.10;49.43;100828.14;1759810;81;21022;-76
2023/10/02 12:11:48;;;;;;;10.63;4.28;;;;;;;18.06;49.21;100820.30;1759721;81;21034;-77
2023/10/02 12:14:18;;;;;;;10.70;4.17;;;;;;;18.02;49.40;100827.40;1759487;81;21360;-76
2023/10/02 12:16:47;;;;;;;9.55;4.03;;;;;;;18.00;49.65;100830.95;1756951;81;21074;-76
2023/10/02 12:19:16;;;;;;;12.33;3.77;;;;;;;17.97;49.89;100828.65;1731768;82;20994;-76
2023/10/02 12:21:47;;;;;;;10.15;4.12;;;;;;;17.96;49.80;100831.11;1784385;80;21030;-76
2023/10/02 12:24:19;;;;;;;14.55;4.00;;;;;;;17.96;49.58;100833.05;1780580;80;21030;-74
2023/10/02 12:26:49;;;;;;;9.15;3.62;;;;;;;17.98;49.68;100830.88;1784553;80;21085;-75
2023/10/02 12:29:19;;;;;;;7.35;3.50;;;;;;;18.01;49.97;100831.25;1784358;80;21524;-76
2023/10/02 12:31:48;;;;;;;9.50;3.83;;;;;;;18.07;49.71;100821.14;1784615;80;21081;-76
2023/10/02 12:34:18;;;;;;;8.13;3.85;;;;;;;18.11;49.32;100822.90;1784620;80;21006;-77
2023/10/02 12:36:49;;;;;;;10.08;3.70;;;;;;;18.14;49.72;100827.43;1784456;80;21496;-76
2023/10/02 12:39:18;;;;;;;11.85;4.10;;;;;;;18.17;50.11;100828.89;1784349;80;21019;-77